sensor_id;sensor_type;location;lat;lon;timestamp;P1;durP1;ratioP1;P2;durP2;ratioP2
6105;SDS011;3083;51.508;7.966;2023-01-09T00:00:23;4.20;;;2.10;;
6105;SDS011;3083;51.508;7.966;2023-01-09T00:02:50;3.97;;;2.07;;
6105;SDS011;3083;51.508;7.966;2023-01-09T00:05:18;3.40;;;1.70;;
6105;SDS011;3083;51.508;7.966;2023-01-09T00:07:45;4.10;;;1.73;;
6105;SDS011;3083;51.508;7.966;2023-01-09T00:10:12;3.97;;;1.73;;
6105;SDS011;3083;51.508;7.966;2023-01-09T00:12:39;4.87;;;1.90;;
6105;SDS011;3083;51.508;7.966;2023-01-09T00:15:08;3.60;;;1.70;;
6105;SDS011;3083;51.508;7.966;2023-01-09T00:17:36;3.67;;;2.10;;
6105;SDS011;3083;51.508;7.966;2023-01-09T00:20:03;4.87;;;1.67;;
6105;SDS011;3083;51.508;7.966;2023-01-09T00:22:31;3.50;;;1.57;;
6105;SDS011;3083;51.508;7.966;2023-01-09T00:24:58;3.20;;;1.50;;
6105;SDS011;3083;51.508;7.966;2023-01-09T00:27:25;3.20;;;1.70;;
6105;SDS011;3083;51.508;7.966;2023-01-09T00:29:55;3.37;;;1.73;;
6105;SDS011;3083;51.508;7.966;2023-01-09T00:32:23;3.00;;;1.40;;
6105;SDS011;3083;51.508;7.966;2023-01-09T00:34:50;3.70;;;1.80;;
6105;SDS011;3083;51.508;7.966;2023-01-09T00:37:17;2.20;;;1.00;;
6105;SDS011;3083;51.508;7.966;2023-01-09T00:39:44;2.77;;;1.23;;
6105;SDS011;3083;51.508;7.966;2023-01-09T00:42:12;3.27;;;1.60;;
6105;SDS011;3083;51.508;7.966;2023-01-09T00:44:42;2.27;;;1.00;;
6105;SDS011;3083;51.508;7.966;2023-01-09T00:47:13;3.03;;;1.27;;
6105;SDS011;3083;51.508;7.966;2023-01-09T00:49:43;2.30;;;1.00;;
6105;SDS011;3083;51.508;7.966;2023-01-09T00:52:11;3.40;;;1.10;;
6105;SDS011;3083;51.508;7.966;2023-01-09T00:54:39;3.33;;;1.10;;
6105;SDS011;3083;51.508;7.966;2023-01-09T00:57:07;2.40;;;1.00;;
6105;SDS011;3083;51.508;7.966;2023-01-09T00:59:37;3.70;;;0.90;;
6105;SDS011;3083;51.508;7.966;2023-01-09T01:02:04;2.67;;;1.20;;
6105;SDS011;3083;51.508;7.966;2023-01-09T01:04:31;3.53;;;1.00;;
6105;SDS011;3083;51.508;7.966;2023-01-09T01:07:16;2.50;;;1.00;;
6105;SDS011;3083;51.508;7.966;2023-01-09T01:10:01;2.30;;;0.90;;
6105;SDS011;3083;51.508;7.966;2023-01-09T01:12:29;2.20;;;0.90;;
6105;SDS011;3083;51.508;7.966;2023-01-09T01:14:56;2.70;;;1.00;;
6105;SDS011;3083;51.508;7.966;2023-01-09T01:17:23;3.03;;;1.00;;
6105;SDS011;3083;51.508;7.966;2023-01-09T01:19:50;2.20;;;0.90;;
6105;SDS011;3083;51.508;7.966;2023-01-09T01:22:18;2.23;;;0.90;;
6105;SDS011;3083;51.508;7.966;2023-01-09T01:24:45;2.27;;;0.83;;
6105;SDS011;3083;51.508;7.966;2023-01-09T01:27:12;2.30;;;0.87;;
6105;SDS011;3083;51.508;7.966;2023-01-09T01:29:39;2.50;;;1.10;;
6105;SDS011;3083;51.508;7.966;2023-01-09T01:32:06;2.30;;;0.80;;
6105;SDS011;3083;51.508;7.966;2023-01-09T01:34:33;2.10;;;0.80;;
6105;SDS011;3083;51.508;7.966;2023-01-09T01:37:00;2.33;;;0.93;;
6105;SDS011;3083;51.508;7.966;2023-01-09T01:39:28;2.30;;;0.80;;
6105;SDS011;3083;51.508;7.966;2023-01-09T01:41:55;2.90;;;0.90;;
6105;SDS011;3083;51.508;7.966;2023-01-09T01:47:22;1.90;;;0.70;;
6105;SDS011;3083;51.508;7.966;2023-01-09T01:49:54;2.20;;;0.80;;
6105;SDS011;3083;51.508;7.966;2023-01-09T01:52:21;2.20;;;0.87;;
6105;SDS011;3083;51.508;7.966;2023-01-09T01:54:51;2.23;;;0.90;;
6105;SDS011;3083;51.508;7.966;2023-01-09T01:57:19;3.33;;;1.20;;
6105;SDS011;3083;51.508;7.966;2023-01-09T01:59:47;2.23;;;0.90;;
6105;SDS011;3083;51.508;7.966;2023-01-09T02:02:16;2.13;;;1.00;;
6105;SDS011;3083;51.508;7.966;2023-01-09T02:04:45;2.03;;;0.80;;
6105;SDS011;3083;51.508;7.966;2023-01-09T02:07:13;2.30;;;1.00;;
6105;SDS011;3083;51.508;7.966;2023-01-09T02:09:40;2.23;;;0.87;;
6105;SDS011;3083;51.508;7.966;2023-01-09T02:12:15;2.60;;;1.20;;
6105;SDS011;3083;51.508;7.966;2023-01-09T02:14:43;2.77;;;1.40;;
6105;SDS011;3083;51.508;7.966;2023-01-09T02:17:14;2.13;;;0.80;;
6105;SDS011;3083;51.508;7.966;2023-01-09T02:20:05;2.30;;;0.97;;
6105;SDS011;3083;51.508;7.966;2023-01-09T02:22:51;2.20;;;1.10;;
6105;SDS011;3083;51.508;7.966;2023-01-09T02:25:43;2.10;;;0.90;;
6105;SDS011;3083;51.508;7.966;2023-01-09T02:28:43;2.30;;;0.73;;
6105;SDS011;3083;51.508;7.966;2023-01-09T02:31:31;2.10;;;0.80;;
6105;SDS011;3083;51.508;7.966;2023-01-09T02:34:04;2.00;;;0.70;;
6105;SDS011;3083;51.508;7.966;2023-01-09T02:36:38;2.23;;;0.80;;
6105;SDS011;3083;51.508;7.966;2023-01-09T02:39:15;2.73;;;0.80;;
6105;SDS011;3083;51.508;7.966;2023-01-09T02:41:51;2.43;;;0.90;;
6105;SDS011;3083;51.508;7.966;2023-01-09T02:44:23;2.07;;;0.80;;
6105;SDS011;3083;51.508;7.966;2023-01-09T02:47:00;2.20;;;0.90;;
6105;SDS011;3083;51.508;7.966;2023-01-09T02:49:29;2.20;;;0.83;;
6105;SDS011;3083;51.508;7.966;2023-01-09T02:52:01;2.43;;;0.90;;
6105;SDS011;3083;51.508;7.966;2023-01-09T02:54:47;2.00;;;0.80;;
6105;SDS011;3083;51.508;7.966;2023-01-09T02:57:30;2.47;;;0.90;;
6105;SDS011;3083;51.508;7.966;2023-01-09T03:00:09;2.20;;;0.83;;
6105;SDS011;3083;51.508;7.966;2023-01-09T03:02:46;2.20;;;0.90;;
6105;SDS011;3083;51.508;7.966;2023-01-09T03:05:20;2.73;;;1.10;;
6105;SDS011;3083;51.508;7.966;2023-01-09T03:07:54;2.17;;;0.90;;
6105;SDS011;3083;51.508;7.966;2023-01-09T03:10:25;3.90;;;1.20;;
6105;SDS011;3083;51.508;7.966;2023-01-09T03:12:56;2.33;;;0.97;;
6105;SDS011;3083;51.508;7.966;2023-01-09T03:15:27;2.63;;;1.10;;
6105;SDS011;3083;51.508;7.966;2023-01-09T03:17:59;3.03;;;1.17;;
6105;SDS011;3083;51.508;7.966;2023-01-09T03:20:26;2.73;;;1.10;;
6105;SDS011;3083;51.508;7.966;2023-01-09T03:22:56;2.90;;;1.30;;
6105;SDS011;3083;51.508;7.966;2023-01-09T03:25:24;3.10;;;1.23;;
6105;SDS011;3083;51.508;7.966;2023-01-09T03:27:55;2.73;;;1.17;;
6105;SDS011;3083;51.508;7.966;2023-01-09T03:30:22;3.23;;;1.50;;
6105;SDS011;3083;51.508;7.966;2023-01-09T03:32:51;2.40;;;1.10;;
6105;SDS011;3083;51.508;7.966;2023-01-09T03:35:20;4.40;;;1.40;;
6105;SDS011;3083;51.508;7.966;2023-01-09T03:37:47;4.20;;;1.33;;
6105;SDS011;3083;51.508;7.966;2023-01-09T03:40:15;3.93;;;1.50;;
6105;SDS011;3083;51.508;7.966;2023-01-09T03:42:42;3.93;;;1.20;;
6105;SDS011;3083;51.508;7.966;2023-01-09T03:45:09;3.27;;;1.57;;
6105;SDS011;3083;51.508;7.966;2023-01-09T03:47:36;5.70;;;1.50;;
6105;SDS011;3083;51.508;7.966;2023-01-09T03:50:04;3.37;;;1.47;;
6105;SDS011;3083;51.508;7.966;2023-01-09T03:52:33;3.33;;;1.60;;
6105;SDS011;3083;51.508;7.966;2023-01-09T03:55:00;3.80;;;1.87;;
6105;SDS011;3083;51.508;7.966;2023-01-09T03:57:28;4.33;;;1.50;;
6105;SDS011;3083;51.508;7.966;2023-01-09T03:59:55;3.40;;;1.83;;
6105;SDS011;3083;51.508;7.966;2023-01-09T04:02:21;5.07;;;1.80;;
6105;SDS011;3083;51.508;7.966;2023-01-09T04:04:48;5.67;;;2.20;;
6105;SDS011;3083;51.508;7.966;2023-01-09T04:07:15;3.53;;;1.90;;
6105;SDS011;3083;51.508;7.966;2023-01-09T04:09:43;3.73;;;1.90;;
6105;SDS011;3083;51.508;7.966;2023-01-09T04:12:10;4.00;;;1.90;;
6105;SDS011;3083;51.508;7.966;2023-01-09T04:14:38;4.57;;;2.30;;
6105;SDS011;3083;51.508;7.966;2023-01-09T04:17:05;6.80;;;2.07;;
6105;SDS011;3083;51.508;7.966;2023-01-09T04:19:32;4.13;;;2.20;;
6105;SDS011;3083;51.508;7.966;2023-01-09T04:21:59;5.20;;;2.43;;
6105;SDS011;3083;51.508;7.966;2023-01-09T04:24:26;6.37;;;2.20;;
6105;SDS011;3083;51.508;7.966;2023-01-09T04:26:55;4.77;;;2.00;;
6105;SDS011;3083;51.508;7.966;2023-01-09T04:29:22;6.07;;;2.43;;
6105;SDS011;3083;51.508;7.966;2023-01-09T04:31:49;7.27;;;2.50;;
6105;SDS011;3083;51.508;7.966;2023-01-09T04:34:16;5.17;;;2.77;;
6105;SDS011;3083;51.508;7.966;2023-01-09T04:36:43;10.73;;;3.00;;
6105;SDS011;3083;51.508;7.966;2023-01-09T04:39:10;6.37;;;2.73;;
6105;SDS011;3083;51.508;7.966;2023-01-09T04:41:37;5.23;;;2.80;;
6105;SDS011;3083;51.508;7.966;2023-01-09T04:44:18;5.40;;;2.47;;
6105;SDS011;3083;51.508;7.966;2023-01-09T04:46:47;11.77;;;3.13;;
6105;SDS011;3083;51.508;7.966;2023-01-09T04:49:14;5.43;;;2.50;;
6105;SDS011;3083;51.508;7.966;2023-01-09T04:51:41;5.87;;;2.77;;
6105;SDS011;3083;51.508;7.966;2023-01-09T04:54:08;5.53;;;3.13;;
6105;SDS011;3083;51.508;7.966;2023-01-09T04:56:36;9.70;;;3.43;;
6105;SDS011;3083;51.508;7.966;2023-01-09T04:59:03;7.20;;;2.93;;
6105;SDS011;3083;51.508;7.966;2023-01-09T05:01:32;6.17;;;3.10;;
6105;SDS011;3083;51.508;7.966;2023-01-09T05:03:59;6.70;;;3.33;;
6105;SDS011;3083;51.508;7.966;2023-01-09T05:06:26;9.47;;;2.83;;
6105;SDS011;3083;51.508;7.966;2023-01-09T05:08:53;5.33;;;3.03;;
6105;SDS011;3083;51.508;7.966;2023-01-09T05:11:21;5.83;;;2.80;;
6105;SDS011;3083;51.508;7.966;2023-01-09T05:13:49;6.13;;;2.83;;
6105;SDS011;3083;51.508;7.966;2023-01-09T05:16:16;6.83;;;3.00;;
6105;SDS011;3083;51.508;7.966;2023-01-09T05:18:44;8.73;;;3.50;;
6105;SDS011;3083;51.508;7.966;2023-01-09T05:21:11;6.73;;;2.70;;
6105;SDS011;3083;51.508;7.966;2023-01-09T05:23:39;6.87;;;3.07;;
6105;SDS011;3083;51.508;7.966;2023-01-09T05:26:06;6.17;;;3.37;;
6105;SDS011;3083;51.508;7.966;2023-01-09T05:28:33;7.20;;;2.80;;
6105;SDS011;3083;51.508;7.966;2023-01-09T05:31:00;6.30;;;3.60;;
6105;SDS011;3083;51.508;7.966;2023-01-09T05:33:27;7.90;;;3.50;;
6105;SDS011;3083;51.508;7.966;2023-01-09T05:35:55;5.80;;;2.80;;
6105;SDS011;3083;51.508;7.966;2023-01-09T05:38:22;9.90;;;3.27;;
6105;SDS011;3083;51.508;7.966;2023-01-09T05:40:49;6.47;;;3.00;;
6105;SDS011;3083;51.508;7.966;2023-01-09T05:43:16;7.90;;;2.80;;
6105;SDS011;3083;51.508;7.966;2023-01-09T05:45:43;6.23;;;2.90;;
6105;SDS011;3083;51.508;7.966;2023-01-09T05:48:10;6.40;;;3.17;;
6105;SDS011;3083;51.508;7.966;2023-01-09T05:50:37;7.37;;;3.00;;
6105;SDS011;3083;51.508;7.966;2023-01-09T05:53:05;5.47;;;2.50;;
6105;SDS011;3083;51.508;7.966;2023-01-09T05:55:32;8.50;;;3.10;;
6105;SDS011;3083;51.508;7.966;2023-01-09T05:57:59;9.53;;;3.07;;
6105;SDS011;3083;51.508;7.966;2023-01-09T06:00:26;5.00;;;2.60;;
6105;SDS011;3083;51.508;7.966;2023-01-09T06:02:53;10.27;;;3.83;;
6105;SDS011;3083;51.508;7.966;2023-01-09T06:05:20;10.93;;;3.23;;
6105;SDS011;3083;51.508;7.966;2023-01-09T06:07:47;7.10;;;2.73;;
6105;SDS011;3083;51.508;7.966;2023-01-09T06:10:15;8.50;;;3.03;;
6105;SDS011;3083;51.508;7.966;2023-01-09T06:12:46;4.90;;;2.30;;
6105;SDS011;3083;51.508;7.966;2023-01-09T06:15:14;7.03;;;2.70;;
6105;SDS011;3083;51.508;7.966;2023-01-09T06:17:41;7.03;;;2.93;;
6105;SDS011;3083;51.508;7.966;2023-01-09T06:20:09;6.77;;;3.20;;
6105;SDS011;3083;51.508;7.966;2023-01-09T06:22:36;8.87;;;2.60;;
6105;SDS011;3083;51.508;7.966;2023-01-09T06:25:03;7.37;;;2.40;;
6105;SDS011;3083;51.508;7.966;2023-01-09T06:27:32;6.40;;;2.40;;
6105;SDS011;3083;51.508;7.966;2023-01-09T06:29:59;8.87;;;2.43;;
6105;SDS011;3083;51.508;7.966;2023-01-09T06:32:26;6.07;;;2.97;;
6105;SDS011;3083;51.508;7.966;2023-01-09T06:34:53;6.67;;;2.33;;
6105;SDS011;3083;51.508;7.966;2023-01-09T06:37:20;5.10;;;2.23;;
6105;SDS011;3083;51.508;7.966;2023-01-09T06:39:47;5.40;;;2.33;;
6105;SDS011;3083;51.508;7.966;2023-01-09T06:42:14;9.13;;;2.43;;
6105;SDS011;3083;51.508;7.966;2023-01-09T06:44:42;7.87;;;3.00;;
6105;SDS011;3083;51.508;7.966;2023-01-09T06:47:10;9.43;;;2.70;;
6105;SDS011;3083;51.508;7.966;2023-01-09T06:49:37;5.67;;;2.03;;
6105;SDS011;3083;51.508;7.966;2023-01-09T06:52:04;5.03;;;2.27;;
6105;SDS011;3083;51.508;7.966;2023-01-09T06:54:32;4.50;;;1.93;;
6105;SDS011;3083;51.508;7.966;2023-01-09T06:56:59;4.83;;;1.80;;
6105;SDS011;3083;51.508;7.966;2023-01-09T06:59:27;3.87;;;1.80;;
6105;SDS011;3083;51.508;7.966;2023-01-09T07:01:55;4.87;;;2.10;;
6105;SDS011;3083;51.508;7.966;2023-01-09T07:04:22;5.10;;;2.07;;
6105;SDS011;3083;51.508;7.966;2023-01-09T07:06:49;4.17;;;2.30;;
6105;SDS011;3083;51.508;7.966;2023-01-09T07:09:15;3.00;;;1.40;;
6105;SDS011;3083;51.508;7.966;2023-01-09T07:11:42;2.70;;;1.30;;
6105;SDS011;3083;51.508;7.966;2023-01-09T07:14:09;4.30;;;1.47;;
6105;SDS011;3083;51.508;7.966;2023-01-09T07:16:36;6.10;;;1.67;;
6105;SDS011;3083;51.508;7.966;2023-01-09T07:19:05;8.97;;;2.37;;
6105;SDS011;3083;51.508;7.966;2023-01-09T07:21:32;5.67;;;1.57;;
6105;SDS011;3083;51.508;7.966;2023-01-09T07:23:59;6.93;;;1.30;;
6105;SDS011;3083;51.508;7.966;2023-01-09T07:26:25;4.40;;;1.30;;
6105;SDS011;3083;51.508;7.966;2023-01-09T07:28:52;5.93;;;1.53;;
6105;SDS011;3083;51.508;7.966;2023-01-09T07:31:19;4.97;;;1.87;;
6105;SDS011;3083;51.508;7.966;2023-01-09T07:33:46;5.47;;;1.50;;
6105;SDS011;3083;51.508;7.966;2023-01-09T07:36:14;6.73;;;1.23;;
6105;SDS011;3083;51.508;7.966;2023-01-09T07:38:41;3.70;;;1.53;;
6105;SDS011;3083;51.508;7.966;2023-01-09T07:41:08;7.27;;;1.53;;
6105;SDS011;3083;51.508;7.966;2023-01-09T07:43:36;3.33;;;1.17;;
6105;SDS011;3083;51.508;7.966;2023-01-09T07:46:04;3.03;;;1.30;;
6105;SDS011;3083;51.508;7.966;2023-01-09T07:48:31;4.47;;;1.20;;
6105;SDS011;3083;51.508;7.966;2023-01-09T07:50:58;5.03;;;1.77;;
6105;SDS011;3083;51.508;7.966;2023-01-09T07:53:27;4.10;;;1.37;;
6105;SDS011;3083;51.508;7.966;2023-01-09T07:55:54;4.93;;;1.63;;
6105;SDS011;3083;51.508;7.966;2023-01-09T07:58:20;2.50;;;1.10;;
6105;SDS011;3083;51.508;7.966;2023-01-09T08:00:48;2.50;;;1.20;;
6105;SDS011;3083;51.508;7.966;2023-01-09T08:03:16;3.67;;;1.53;;
6105;SDS011;3083;51.508;7.966;2023-01-09T08:05:42;7.63;;;1.27;;
6105;SDS011;3083;51.508;7.966;2023-01-09T08:08:10;8.80;;;2.00;;
6105;SDS011;3083;51.508;7.966;2023-01-09T08:10:40;3.60;;;1.10;;
6105;SDS011;3083;51.508;7.966;2023-01-09T08:13:07;2.83;;;1.40;;
6105;SDS011;3083;51.508;7.966;2023-01-09T08:15:34;3.00;;;1.53;;
6105;SDS011;3083;51.508;7.966;2023-01-09T08:18:01;3.50;;;1.50;;
6105;SDS011;3083;51.508;7.966;2023-01-09T08:20:28;3.40;;;1.30;;
6105;SDS011;3083;51.508;7.966;2023-01-09T08:22:55;3.27;;;1.50;;
6105;SDS011;3083;51.508;7.966;2023-01-09T08:25:22;4.27;;;1.20;;
6105;SDS011;3083;51.508;7.966;2023-01-09T08:27:51;2.90;;;1.30;;
6105;SDS011;3083;51.508;7.966;2023-01-09T08:30:18;3.37;;;1.40;;
6105;SDS011;3083;51.508;7.966;2023-01-09T08:32:47;3.60;;;1.70;;
6105;SDS011;3083;51.508;7.966;2023-01-09T08:35:14;3.80;;;1.30;;
6105;SDS011;3083;51.508;7.966;2023-01-09T08:37:42;5.77;;;1.50;;
6105;SDS011;3083;51.508;7.966;2023-01-09T08:40:09;6.80;;;1.50;;
6105;SDS011;3083;51.508;7.966;2023-01-09T08:42:37;5.10;;;1.93;;
6105;SDS011;3083;51.508;7.966;2023-01-09T08:45:23;3.03;;;1.57;;
6105;SDS011;3083;51.508;7.966;2023-01-09T08:48:08;5.20;;;2.13;;
6105;SDS011;3083;51.508;7.966;2023-01-09T08:50:34;5.53;;;1.53;;
6105;SDS011;3083;51.508;7.966;2023-01-09T08:53:01;4.13;;;1.50;;
6105;SDS011;3083;51.508;7.966;2023-01-09T08:55:29;3.10;;;1.37;;
6105;SDS011;3083;51.508;7.966;2023-01-09T08:57:56;4.33;;;1.23;;
6105;SDS011;3083;51.508;7.966;2023-01-09T09:00:24;3.70;;;1.30;;
6105;SDS011;3083;51.508;7.966;2023-01-09T09:02:51;4.50;;;1.50;;
6105;SDS011;3083;51.508;7.966;2023-01-09T09:05:19;4.80;;;1.20;;
6105;SDS011;3083;51.508;7.966;2023-01-09T09:07:47;3.50;;;1.30;;
6105;SDS011;3083;51.508;7.966;2023-01-09T09:10:15;3.00;;;1.20;;
6105;SDS011;3083;51.508;7.966;2023-01-09T09:12:42;3.77;;;1.27;;
6105;SDS011;3083;51.508;7.966;2023-01-09T09:15:09;4.60;;;1.60;;
6105;SDS011;3083;51.508;7.966;2023-01-09T09:17:42;7.20;;;1.50;;
6105;SDS011;3083;51.508;7.966;2023-01-09T09:20:10;4.10;;;1.23;;
6105;SDS011;3083;51.508;7.966;2023-01-09T09:22:37;3.10;;;1.30;;
6105;SDS011;3083;51.508;7.966;2023-01-09T09:25:04;2.70;;;1.40;;
6105;SDS011;3083;51.508;7.966;2023-01-09T09:27:31;5.47;;;1.30;;
6105;SDS011;3083;51.508;7.966;2023-01-09T09:30:00;2.90;;;1.27;;
6105;SDS011;3083;51.508;7.966;2023-01-09T09:32:27;3.70;;;1.27;;
6105;SDS011;3083;51.508;7.966;2023-01-09T09:34:57;3.30;;;1.70;;
6105;SDS011;3083;51.508;7.966;2023-01-09T09:37:24;4.83;;;1.43;;
6105;SDS011;3083;51.508;7.966;2023-01-09T09:39:51;4.20;;;1.03;;
6105;SDS011;3083;51.508;7.966;2023-01-09T09:42:28;8.43;;;1.50;;
6105;SDS011;3083;51.508;7.966;2023-01-09T09:45:25;5.00;;;1.50;;
6105;SDS011;3083;51.508;7.966;2023-01-09T09:48:06;3.73;;;1.30;;
6105;SDS011;3083;51.508;7.966;2023-01-09T09:53:41;4.90;;;1.20;;
6105;SDS011;3083;51.508;7.966;2023-01-09T09:56:13;3.00;;;1.33;;
6105;SDS011;3083;51.508;7.966;2023-01-09T09:58:44;3.27;;;0.93;;
6105;SDS011;3083;51.508;7.966;2023-01-09T10:01:16;3.33;;;1.00;;
6105;SDS011;3083;51.508;7.966;2023-01-09T10:03:48;2.87;;;1.27;;
6105;SDS011;3083;51.508;7.966;2023-01-09T10:06:20;2.80;;;0.90;;
6105;SDS011;3083;51.508;7.966;2023-01-09T10:08:59;2.50;;;0.90;;
6105;SDS011;3083;51.508;7.966;2023-01-09T10:11:32;2.97;;;1.20;;
6105;SDS011;3083;51.508;7.966;2023-01-09T10:14:08;3.37;;;1.20;;
6105;SDS011;3083;51.508;7.966;2023-01-09T10:19:39;2.70;;;1.00;;
6105;SDS011;3083;51.508;7.966;2023-01-09T10:22:22;3.47;;;1.27;;
6105;SDS011;3083;51.508;7.966;2023-01-09T10:25:07;2.37;;;0.90;;
6105;SDS011;3083;51.508;7.966;2023-01-09T10:27:52;2.40;;;1.00;;
6105;SDS011;3083;51.508;7.966;2023-01-09T10:30:31;2.53;;;0.90;;
6105;SDS011;3083;51.508;7.966;2023-01-09T10:33:05;3.20;;;1.30;;
6105;SDS011;3083;51.508;7.966;2023-01-09T10:35:45;4.37;;;1.00;;
6105;SDS011;3083;51.508;7.966;2023-01-09T10:38:23;2.40;;;0.90;;
6105;SDS011;3083;51.508;7.966;2023-01-09T10:40:54;2.73;;;1.00;;
6105;SDS011;3083;51.508;7.966;2023-01-09T10:43:28;2.60;;;0.93;;
6105;SDS011;3083;51.508;7.966;2023-01-09T10:45:59;3.27;;;1.10;;
6105;SDS011;3083;51.508;7.966;2023-01-09T10:48:29;6.60;;;1.30;;
6105;SDS011;3083;51.508;7.966;2023-01-09T10:50:58;2.87;;;1.10;;
6105;SDS011;3083;51.508;7.966;2023-01-09T10:53:28;4.00;;;1.20;;
6105;SDS011;3083;51.508;7.966;2023-01-09T10:56:00;4.43;;;1.40;;
6105;SDS011;3083;51.508;7.966;2023-01-09T10:58:33;3.30;;;1.40;;
6105;SDS011;3083;51.508;7.966;2023-01-09T11:01:00;3.33;;;1.40;;
6105;SDS011;3083;51.508;7.966;2023-01-09T11:03:27;2.30;;;1.03;;
6105;SDS011;3083;51.508;7.966;2023-01-09T11:05:55;3.63;;;1.50;;
6105;SDS011;3083;51.508;7.966;2023-01-09T11:08:27;2.63;;;1.13;;
6105;SDS011;3083;51.508;7.966;2023-01-09T11:10:58;2.93;;;1.40;;
6105;SDS011;3083;51.508;7.966;2023-01-09T11:13:26;4.23;;;1.50;;
6105;SDS011;3083;51.508;7.966;2023-01-09T11:16:00;4.70;;;1.40;;
6105;SDS011;3083;51.508;7.966;2023-01-09T11:18:31;3.23;;;1.57;;
6105;SDS011;3083;51.508;7.966;2023-01-09T11:21:12;4.50;;;1.40;;
6105;SDS011;3083;51.508;7.966;2023-01-09T11:23:47;5.47;;;1.40;;
6105;SDS011;3083;51.508;7.966;2023-01-09T11:26:20;4.73;;;1.37;;
6105;SDS011;3083;51.508;7.966;2023-01-09T11:29:05;3.70;;;1.50;;
6105;SDS011;3083;51.508;7.966;2023-01-09T11:31:35;3.97;;;1.67;;
6105;SDS011;3083;51.508;7.966;2023-01-09T11:34:03;3.77;;;1.90;;
6105;SDS011;3083;51.508;7.966;2023-01-09T11:36:31;2.70;;;1.30;;
6105;SDS011;3083;51.508;7.966;2023-01-09T11:38:59;3.20;;;1.60;;
6105;SDS011;3083;51.508;7.966;2023-01-09T11:41:28;3.90;;;1.77;;
6105;SDS011;3083;51.508;7.966;2023-01-09T11:43:59;4.43;;;1.90;;
6105;SDS011;3083;51.508;7.966;2023-01-09T11:46:29;4.10;;;1.70;;
6105;SDS011;3083;51.508;7.966;2023-01-09T11:49:02;3.10;;;1.57;;
6105;SDS011;3083;51.508;7.966;2023-01-09T11:51:31;4.43;;;2.10;;
6105;SDS011;3083;51.508;7.966;2023-01-09T11:56:47;3.97;;;1.80;;
6105;SDS011;3083;51.508;7.966;2023-01-09T11:59:16;7.57;;;1.80;;
6105;SDS011;3083;51.508;7.966;2023-01-09T12:04:57;4.33;;;1.90;;
6105;SDS011;3083;51.508;7.966;2023-01-09T12:07:34;4.67;;;2.13;;
6105;SDS011;3083;51.508;7.966;2023-01-09T12:10:26;4.50;;;1.90;;
6105;SDS011;3083;51.508;7.966;2023-01-09T12:13:21;3.63;;;1.67;;
6105;SDS011;3083;51.508;7.966;2023-01-09T12:16:05;5.70;;;2.43;;
6105;SDS011;3083;51.508;7.966;2023-01-09T12:18:45;3.80;;;1.93;;
6105;SDS011;3083;51.508;7.966;2023-01-09T12:21:31;5.73;;;2.30;;
6105;SDS011;3083;51.508;7.966;2023-01-09T12:27:05;6.17;;;2.77;;
6105;SDS011;3083;51.508;7.966;2023-01-09T12:29:49;4.20;;;2.60;;
6105;SDS011;3083;51.508;7.966;2023-01-09T12:32:31;10.20;;;2.90;;
6105;SDS011;3083;51.508;7.966;2023-01-09T12:35:11;8.20;;;3.40;;
6105;SDS011;3083;51.508;7.966;2023-01-09T12:37:58;5.13;;;3.00;;
6105;SDS011;3083;51.508;7.966;2023-01-09T12:40:41;7.47;;;3.43;;
6105;SDS011;3083;51.508;7.966;2023-01-09T12:43:20;7.47;;;3.10;;
6105;SDS011;3083;51.508;7.966;2023-01-09T12:46:02;7.67;;;2.93;;
6105;SDS011;3083;51.508;7.966;2023-01-09T12:48:42;7.27;;;3.00;;
6105;SDS011;3083;51.508;7.966;2023-01-09T12:51:32;7.43;;;2.47;;
6105;SDS011;3083;51.508;7.966;2023-01-09T12:54:04;8.80;;;3.10;;
6105;SDS011;3083;51.508;7.966;2023-01-09T12:56:35;5.60;;;2.50;;
6105;SDS011;3083;51.508;7.966;2023-01-09T12:59:09;3.60;;;2.13;;
6105;SDS011;3083;51.508;7.966;2023-01-09T13:01:47;4.40;;;2.40;;
6105;SDS011;3083;51.508;7.966;2023-01-09T13:04:16;6.10;;;2.03;;
6105;SDS011;3083;51.508;7.966;2023-01-09T13:06:49;6.20;;;2.87;;
6105;SDS011;3083;51.508;7.966;2023-01-09T13:09:20;8.03;;;2.13;;
6105;SDS011;3083;51.508;7.966;2023-01-09T13:11:54;5.20;;;2.53;;
6105;SDS011;3083;51.508;7.966;2023-01-09T13:14:36;5.10;;;2.30;;
6105;SDS011;3083;51.508;7.966;2023-01-09T13:17:17;6.10;;;2.80;;
6105;SDS011;3083;51.508;7.966;2023-01-09T13:19:49;6.10;;;2.40;;
6105;SDS011;3083;51.508;7.966;2023-01-09T13:22:17;6.93;;;2.10;;
6105;SDS011;3083;51.508;7.966;2023-01-09T13:27:45;6.80;;;2.57;;
6105;SDS011;3083;51.508;7.966;2023-01-09T13:30:28;5.23;;;2.70;;
6105;SDS011;3083;51.508;7.966;2023-01-09T13:33:07;5.90;;;3.27;;
6105;SDS011;3083;51.508;7.966;2023-01-09T13:35:48;6.50;;;3.10;;
6105;SDS011;3083;51.508;7.966;2023-01-09T13:38:16;5.60;;;2.53;;
6105;SDS011;3083;51.508;7.966;2023-01-09T13:40:45;7.37;;;2.67;;
6105;SDS011;3083;51.508;7.966;2023-01-09T13:43:14;4.73;;;2.50;;
6105;SDS011;3083;51.508;7.966;2023-01-09T13:45:42;5.30;;;2.33;;
6105;SDS011;3083;51.508;7.966;2023-01-09T13:48:16;4.83;;;2.83;;
6105;SDS011;3083;51.508;7.966;2023-01-09T13:53:54;6.70;;;2.63;;
6105;SDS011;3083;51.508;7.966;2023-01-09T13:56:21;5.60;;;3.00;;
6105;SDS011;3083;51.508;7.966;2023-01-09T13:59:00;8.57;;;2.80;;
6105;SDS011;3083;51.508;7.966;2023-01-09T14:01:44;7.50;;;2.87;;
6105;SDS011;3083;51.508;7.966;2023-01-09T14:07:21;4.10;;;2.00;;
6105;SDS011;3083;51.508;7.966;2023-01-09T14:09:51;3.50;;;1.80;;
6105;SDS011;3083;51.508;7.966;2023-01-09T14:12:22;3.90;;;1.93;;
6105;SDS011;3083;51.508;7.966;2023-01-09T14:14:51;6.23;;;1.90;;
6105;SDS011;3083;51.508;7.966;2023-01-09T14:17:26;5.13;;;2.20;;
6105;SDS011;3083;51.508;7.966;2023-01-09T14:19:58;6.30;;;2.57;;
6105;SDS011;3083;51.508;7.966;2023-01-09T14:22:27;5.20;;;2.70;;
6105;SDS011;3083;51.508;7.966;2023-01-09T14:25:00;6.53;;;2.40;;
6105;SDS011;3083;51.508;7.966;2023-01-09T14:31:04;5.60;;;2.07;;
6105;SDS011;3083;51.508;7.966;2023-01-09T14:33:34;6.57;;;2.83;;
6105;SDS011;3083;51.508;7.966;2023-01-09T14:36:07;4.70;;;2.70;;
6105;SDS011;3083;51.508;7.966;2023-01-09T14:38:39;5.90;;;2.67;;
6105;SDS011;3083;51.508;7.966;2023-01-09T14:41:10;5.53;;;2.77;;
6105;SDS011;3083;51.508;7.966;2023-01-09T14:43:46;6.73;;;2.80;;
6105;SDS011;3083;51.508;7.966;2023-01-09T14:46:21;6.10;;;2.90;;
6105;SDS011;3083;51.508;7.966;2023-01-09T14:48:56;11.27;;;3.10;;
6105;SDS011;3083;51.508;7.966;2023-01-09T14:51:30;5.13;;;2.17;;
6105;SDS011;3083;51.508;7.966;2023-01-09T14:54:01;6.10;;;2.73;;
6105;SDS011;3083;51.508;7.966;2023-01-09T14:56:31;7.63;;;3.40;;
6105;SDS011;3083;51.508;7.966;2023-01-09T14:59:09;7.80;;;3.20;;
6105;SDS011;3083;51.508;7.966;2023-01-09T15:01:38;7.53;;;3.23;;
6105;SDS011;3083;51.508;7.966;2023-01-09T15:04:19;8.53;;;3.70;;
6105;SDS011;3083;51.508;7.966;2023-01-09T15:06:50;12.33;;;4.13;;
6105;SDS011;3083;51.508;7.966;2023-01-09T15:09:19;7.87;;;3.83;;
6105;SDS011;3083;51.508;7.966;2023-01-09T15:11:49;5.83;;;2.80;;
6105;SDS011;3083;51.508;7.966;2023-01-09T15:14:22;9.30;;;3.60;;
6105;SDS011;3083;51.508;7.966;2023-01-09T15:16:55;8.33;;;3.30;;
6105;SDS011;3083;51.508;7.966;2023-01-09T15:19:24;5.13;;;2.73;;
6105;SDS011;3083;51.508;7.966;2023-01-09T15:21:55;7.33;;;2.73;;
6105;SDS011;3083;51.508;7.966;2023-01-09T15:24:23;4.90;;;2.70;;
6105;SDS011;3083;51.508;7.966;2023-01-09T15:26:54;9.33;;;2.90;;
6105;SDS011;3083;51.508;7.966;2023-01-09T15:29:23;5.37;;;2.97;;
6105;SDS011;3083;51.508;7.966;2023-01-09T15:31:52;6.00;;;3.10;;
6105;SDS011;3083;51.508;7.966;2023-01-09T15:34:21;6.50;;;3.00;;
6105;SDS011;3083;51.508;7.966;2023-01-09T15:36:50;7.00;;;2.93;;
6105;SDS011;3083;51.508;7.966;2023-01-09T15:39:19;6.37;;;2.80;;
6105;SDS011;3083;51.508;7.966;2023-01-09T15:41:49;4.93;;;2.70;;
6105;SDS011;3083;51.508;7.966;2023-01-09T15:44:34;7.83;;;3.00;;
6105;SDS011;3083;51.508;7.966;2023-01-09T15:47:05;5.87;;;2.90;;
6105;SDS011;3083;51.508;7.966;2023-01-09T15:49:35;7.90;;;2.63;;
6105;SDS011;3083;51.508;7.966;2023-01-09T15:52:02;7.67;;;2.97;;
6105;SDS011;3083;51.508;7.966;2023-01-09T15:54:31;7.73;;;3.67;;
6105;SDS011;3083;51.508;7.966;2023-01-09T16:02:57;9.77;;;3.57;;
6105;SDS011;3083;51.508;7.966;2023-01-09T16:05:40;5.87;;;3.00;;
6105;SDS011;3083;51.508;7.966;2023-01-09T16:08:19;7.47;;;3.50;;
6105;SDS011;3083;51.508;7.966;2023-01-09T16:10:49;8.90;;;3.60;;
6105;SDS011;3083;51.508;7.966;2023-01-09T16:13:19;7.93;;;3.40;;